Time;durP1;ratioP1;P1;durP2;ratioP2;P2;SDS_P1;SDS_P2;PMS_P1;PMS_P2;Temp;Humidity;BMP_temperature;BMP_pressure;BME280_temperature;BME280_humidity;BME280_pressure;Samples;Min_cycle;Max_cycle;Signal;HPM_P1;HPM_P2
2023/01/26 00:03:54;;;;;;;15.70;10.25;;;13.90;62.50;;;;;;10412535;28;20021;-60
2023/01/26 00:08:56;;;;;;;16.83;11.68;;;13.90;62.50;;;;;;10412347;28;20488;-59
2023/01/26 00:13:59;;;;;;;17.13;11.13;;;13.90;62.60;;;;;;10410819;28;20057;-59
2023/01/26 00:19:01;;;;;;;16.77;11.57;;;13.90;62.60;;;;;;10410708;28;20025;-59
2023/01/26 00:24:03;;;;;;;18.05;12.70;;;13.90;62.60;;;;;;10441248;28;20039;-59
2023/01/26 00:29:04;;;;;;;21.05;13.55;;;13.90;62.50;;;;;;10451807;28;20021;-60
2023/01/26 00:34:04;;;;;;;14.82;10.73;;;13.90;62.40;;;;;;10452946;28;20104;-60
2023/01/26 00:39:05;;;;;;;19.88;13.55;;;13.90;62.60;;;;;;10451348;28;20064;-60
2023/01/26 00:44:06;;;;;;;17.35;11.43;;;13.80;62.50;;;;;;10430330;28;20105;-59
2023/01/26 00:49:06;;;;;;;17.70;12.13;;;13.80;62.60;;;;;;10413286;28;20024;-59
2023/01/26 00:54:07;;;;;;;18.77;12.07;;;13.80;62.60;;;;;;10413697;28;20018;-60
2023/01/26 00:59:08;;;;;;;20.30;13.73;;;13.80;62.70;;;;;;10409055;28;20128;-60
2023/01/26 01:04:08;;;;;;;16.38;10.20;;;13.80;62.60;;;;;;10436283;28;20025;-59
2023/01/26 01:09:09;;;;;;;17.52;12.88;;;13.80;62.60;;;;;;10435473;28;20152;-60
2023/01/26 01:14:12;;;;;;;17.88;11.55;;;13.70;62.70;;;;;;10410228;28;20052;-60
2023/01/26 01:19:15;;;;;;;18.98;12.55;;;13.70;62.70;;;;;;10420947;28;20025;-61
2023/01/26 01:24:16;;;;;;;15.68;10.68;;;13.70;62.70;;;;;;10441209;28;20392;-58
2023/01/26 01:29:16;;;;;;;18.88;11.98;;;13.70;62.60;;;;;;10449331;28;20036;-61
2023/01/26 01:34:17;;;;;;;18.25;11.93;;;13.70;62.70;;;;;;10440987;28;20163;-60
2023/01/26 01:39:18;;;;;;;16.98;11.27;;;13.70;62.70;;;;;;10407525;28;20037;-59
2023/01/26 01:44:21;;;;;;;16.80;12.52;;;13.70;62.70;;;;;;10419224;28;20088;-60
2023/01/26 01:49:41;;;;;;;16.48;11.50;;;13.70;62.70;;;;;;10439915;28;20115;-60
2023/01/26 01:55:00;;;;;;;17.67;11.70;;;13.70;62.70;;;;;;10408498;28;20056;-59
2023/01/26 02:00:08;;;;;;;17.58;11.60;;;13.70;68.00;;;;;;10407046;28;20060;-58
2023/01/26 02:05:27;;;;;;;15.52;11.00;;;13.70;68.70;;;;;;10374187;28;20022;-59
2023/01/26 02:10:28;;;;;;;17.35;11.90;;;13.80;67.70;;;;;;10406785;28;20504;-60
2023/01/26 02:15:29;;;;;;;17.65;12.15;;;13.80;67.00;;;;;;10420628;28;20079;-60
2023/01/26 02:20:49;;;;;;;17.00;11.65;;;13.80;66.60;;;;;;10390465;28;20047;-59
2023/01/26 02:25:52;;;;;;;16.98;11.93;;;13.80;66.30;;;;;;10443392;28;20053;-59
2023/01/26 02:30:54;;;;;;;16.80;11.43;;;13.70;66.30;;;;;;10427563;28;20059;-59
2023/01/26 02:35:55;;;;;;;16.02;10.75;;;13.70;66.00;;;;;;10424980;28;20017;-60
2023/01/26 02:41:05;;;;;;;15.95;11.75;;;13.70;66.00;;;;;;10430396;28;20099;-59
2023/01/26 02:46:06;;;;;;;17.02;11.05;;;13.70;65.80;;;;;;10429056;28;20480;-59
2023/01/26 02:51:06;;;;;;;15.98;11.90;;;13.70;65.80;;;;;;10414898;28;20120;-59
2023/01/26 02:56:07;;;;;;;14.30;10.77;;;13.60;65.50;;;;;;10406127;28;20414;-59
2023/01/26 03:01:08;;;;;;;13.95;10.77;;;13.60;65.50;;;;;;10430231;28;20586;-59
2023/01/26 03:06:10;;;;;;;15.45;10.93;;;13.60;65.40;;;;;;10405475;28;20097;-60
2023/01/26 03:11:11;;;;;;;17.23;11.52;;;13.60;65.40;;;;;;10408669;28;20060;-59
2023/01/26 03:16:14;;;;;;;16.55;11.25;;;13.60;65.30;;;;;;10426154;28;20882;-61
2023/01/26 03:27:35;;;;;;;15.65;10.55;;;13.50;65.10;;;;;;10445544;28;20021;-60
2023/01/26 03:32:05;;;;;;;15.45;10.38;;;13.50;65.00;;;;;;10442686;28;20033;-60
2023/01/26 03:37:06;;;;;;;17.13;11.48;;;13.50;64.90;;;;;;10453961;28;20059;-60
2023/01/26 03:58:03;;;;;;;15.32;10.38;;;13.50;64.50;;;;;;10412480;28;20121;-61
2023/01/26 04:08:23;;;;;;;12.35;8.98;;;13.80;63.30;;;;;;10419229;28;20029;-59
2023/01/26 04:24:14;;;;;;;12.00;8.55;;;14.20;62.10;;;;;;10435435;28;20637;-60
2023/01/26 04:29:15;;;;;;;13.43;9.02;;;14.40;61.90;;;;;;10411956;28;20097;-60
2023/01/26 04:34:16;;;;;;;15.05;9.23;;;14.60;60.80;;;;;;10433347;28;20028;-60
2023/01/26 04:39:17;;;;;;;14.07;10.00;;;14.80;60.30;;;;;;10435844;28;20017;-59
2023/01/26 04:44:18;;;;;;;12.32;8.57;;;14.90;59.70;;;;;;10432459;28;20014;-59
2023/01/26 04:49:18;;;;;;;12.32;8.48;;;15.00;59.40;;;;;;10437253;28;20544;-60
2023/01/26 04:54:19;;;;;;;11.10;8.00;;;15.10;59.00;;;;;;10427402;28;20032;-61
2023/01/26 04:59:20;;;;;;;12.52;7.03;;;15.20;58.70;;;;;;10416285;28;20038;-60
2023/01/26 05:04:20;;;;;;;10.77;7.50;;;15.30;58.30;;;;;;10437346;28;20032;-60
2023/01/26 05:09:21;;;;;;;10.70;7.38;;;15.40;58.30;;;;;;10417711;28;20049;-60
2023/01/26 05:14:22;;;;;;;8.48;6.45;;;15.40;58.30;;;;;;10449803;28;20045;-60
2023/01/26 05:19:22;;;;;;;11.75;7.40;;;15.40;58.10;;;;;;10436747;28;20068;-60
2023/01/26 05:24:23;;;;;;;9.27;7.20;;;15.50;58.20;;;;;;10430785;28;20917;-59
2023/01/26 05:29:24;;;;;;;8.93;6.55;;;15.50;58.00;;;;;;10408076;28;20041;-59
2023/01/26 05:34:24;;;;;;;9.65;6.78;;;15.50;57.90;;;;;;10427510;28;20443;-60
2023/01/26 05:39:25;;;;;;;10.07;6.53;;;15.60;57.70;;;;;;10432151;28;20061;-59
2023/01/26 05:44:26;;;;;;;10.02;6.53;;;15.70;57.60;;;;;;10426475;28;20105;-55
2023/01/26 05:49:26;;;;;;;10.45;6.88;;;15.70;57.70;;;;;;10430410;28;20048;-57
2023/01/26 05:54:27;;;;;;;10.27;6.40;;;15.80;57.90;;;;;;10427655;28;20029;-58
2023/01/26 05:59:28;;;;;;;9.45;6.07;;;15.80;58.70;;;;;;10446622;28;20032;-55
2023/01/26 06:04:29;;;;;;;12.52;6.47;;;15.90;59.60;;;;;;10419188;28;20025;-58
2023/01/26 06:09:30;;;;;;;12.70;5.60;;;16.00;60.40;;;;;;10390072;28;20648;-57
2023/01/26 06:14:30;;;;;;;10.48;6.57;;;16.10;59.50;;;;;;10413341;28;20138;-57
2023/01/26 06:19:31;;;;;;;15.98;8.13;;;16.10;59.20;;;;;;10448179;28;20144;-56
2023/01/26 06:24:33;;;;;;;12.13;6.60;;;16.00;61.00;;;;;;10446674;28;20029;-58
2023/01/26 06:29:33;;;;;;;16.20;7.13;;;16.00;61.00;;;;;;10448104;28;20013;-55
2023/01/26 06:34:34;;;;;;;15.00;5.80;;;16.10;61.00;;;;;;10448287;28;20063;-59
2023/01/26 06:39:35;;;;;;;13.50;6.45;;;16.20;59.90;;;;;;10408562;28;20120;-55
2023/01/26 06:44:36;;;;;;;14.07;6.45;;;16.10;59.70;;;;;;10445466;28;20064;-58
2023/01/26 06:49:36;;;;;;;18.67;5.78;;;16.20;59.30;;;;;;10428144;28;20104;-57
2023/01/26 06:54:37;;;;;;;21.27;6.93;;;16.10;58.80;;;;;;10404584;28;20121;-56
2023/01/26 06:59:37;;;;;;;20.10;7.03;;;16.20;58.20;;;;;;10401990;28;20583;-57
2023/01/26 07:04:38;;;;;;;13.80;7.35;;;16.50;57.80;;;;;;10402528;28;20096;-58
2023/01/26 07:09:39;;;;;;;17.40;7.35;;;16.60;57.50;;;;;;10402519;28;20104;-57
2023/01/26 07:14:40;;;;;;;20.77;6.43;;;16.70;57.20;;;;;;10400919;28;20045;-58
2023/01/26 07:19:40;;;;;;;14.25;6.45;;;16.60;56.80;;;;;;10401833;28;20034;-57
2023/01/26 07:24:41;;;;;;;14.52;5.78;;;16.60;56.70;;;;;;10432557;28;20104;-58
2023/01/26 07:29:42;;;;;;;12.75;5.93;;;16.60;56.70;;;;;;10430377;28;20049;-59
2023/01/26 07:34:42;;;;;;;12.57;6.35;;;16.60;56.40;;;;;;10408687;28;20057;-59
2023/01/26 07:39:43;;;;;;;13.43;6.60;;;16.70;56.00;;;;;;10411778;28;20214;-57
2023/01/26 07:44:44;;;;;;;16.38;7.32;;;16.70;55.90;;;;;;10417948;28;20108;-58
2023/01/26 07:49:45;;;;;;;10.43;6.07;;;16.70;56.00;;;;;;10422786;28;20029;-59
2023/01/26 07:54:46;;;;;;;13.32;6.30;;;16.70;55.90;;;;;;10445043;28;20025;-59
2023/01/26 07:59:47;;;;;;;10.15;5.35;;;16.70;55.80;;;;;;10444003;28;20033;-58
2023/01/26 08:04:48;;;;;;;12.38;6.72;;;16.80;55.60;;;;;;10450151;28;20520;-58
2023/01/26 08:09:48;;;;;;;11.13;5.80;;;16.80;55.40;;;;;;10404725;28;20028;-56
2023/01/26 08:14:49;;;;;;;9.48;5.70;;;16.80;55.30;;;;;;10410536;28;20087;-56
2023/01/26 08:19:50;;;;;;;9.05;5.10;;;16.90;55.20;;;;;;10440136;28;20112;-59
2023/01/26 08:24:50;;;;;;;11.05;6.57;;;16.90;55.00;;;;;;10442377;28;20021;-59
2023/01/26 08:29:51;;;;;;;8.00;5.45;;;16.90;54.90;;;;;;10451619;28;20021;-59
2023/01/26 08:34:52;;;;;;;7.10;5.43;;;16.90;55.00;;;;;;10450703;28;20152;-57
2023/01/26 08:39:52;;;;;;;9.93;4.43;;;16.90;55.00;;;;;;10451964;28;20033;-59
2023/01/26 08:44:53;;;;;;;9.45;5.20;;;16.90;54.80;;;;;;10437423;28;20041;-59
2023/01/26 08:49:54;;;;;;;11.38;5.05;;;16.90;54.90;;;;;;10419896;28;20107;-57
2023/01/26 08:54:54;;;;;;;10.07;5.90;;;16.90;55.00;;;;;;10437346;28;20102;-58
2023/01/26 08:59:55;;;;;;;11.85;6.18;;;16.90;55.00;;;;;;10420126;28;20120;-59
2023/01/26 09:04:56;;;;;;;8.77;5.07;;;16.90;54.90;;;;;;10410244;28;20017;-57
2023/01/26 09:09:56;;;;;;;10.68;5.78;;;16.80;54.90;;;;;;10409102;28;20036;-57
2023/01/26 09:14:57;;;;;;;8.65;5.47;;;16.90;54.90;;;;;;10409967;28;20129;-58
2023/01/26 09:19:58;;;;;;;9.25;6.47;;;16.90;54.80;;;;;;10411008;28;20087;-58
2023/01/26 09:24:58;;;;;;;7.85;5.55;;;16.90;54.70;;;;;;10450675;28;20404;-59
2023/01/26 09:29:59;;;;;;;11.20;5.07;;;16.90;54.90;;;;;;10448521;28;20076;-57
2023/01/26 09:35:00;;;;;;;7.13;5.32;;;16.90;55.50;;;;;;10450459;28;20170;-57
2023/01/26 09:40:00;;;;;;;8.20;5.95;;;16.90;54.80;;;;;;10448773;28;20479;-58
2023/01/26 09:45:13;;;;;;;10.10;5.72;;;16.90;54.70;;;;;;10434175;28;20690;-59
2023/01/26 09:50:28;;;;;;;8.70;4.90;;;16.90;54.70;;;;;;10416379;28;20426;-59
2023/01/26 09:55:30;;;;;;;9.95;5.80;;;17.00;54.70;;;;;;10407260;28;20743;-56
2023/01/26 10:00:50;;;;;;;7.82;5.13;;;17.00;54.50;;;;;;10406722;28;20041;-58
2023/01/26 10:05:59;;;;;;;10.20;6.22;;;17.00;54.50;;;;;;10406535;28;20030;-58
2023/01/26 10:11:04;;;;;;;9.48;5.15;;;17.10;54.50;;;;;;10406805;28;20083;-58
2023/01/26 10:16:09;;;;;;;11.20;5.97;;;17.00;54.60;;;;;;10423695;28;20088;-58
2023/01/26 10:21:11;;;;;;;8.20;5.65;;;17.00;54.80;;;;;;10423384;28;20021;-58
2023/01/26 10:26:22;;;;;;;7.70;5.15;;;16.90;54.90;;;;;;10419125;28;20641;-58
2023/01/26 10:31:31;;;;;;;5.80;4.18;;;16.90;55.00;;;;;;10405415;28;20022;-58
2023/01/26 10:36:32;;;;;;;7.68;4.90;;;16.90;55.30;;;;;;10418650;28;20028;-57
2023/01/26 10:41:33;;;;;;;7.85;5.18;;;16.80;55.40;;;;;;10419309;28;20517;-58
2023/01/26 10:46:39;;;;;;;10.88;5.60;;;16.80;55.60;;;;;;10430420;28;20013;-59
2023/01/26 10:51:44;;;;;;;6.50;4.80;;;16.70;55.90;;;;;;10412442;28;20057;-58
2023/01/26 10:56:48;;;;;;;5.63;4.18;;;16.60;56.10;;;;;;10410879;28;20132;-58
2023/01/26 11:02:16;;;;;;;6.60;4.85;;;16.50;56.40;;;;;;10412372;28;20029;-58
2023/01/26 11:07:31;;;;;;;6.38;4.10;;;16.50;56.70;;;;;;10404602;28;20636;-57
2023/01/26 11:12:32;;;;;;;8.75;4.60;;;16.50;56.90;;;;;;10404033;28;20504;-56
2023/01/26 11:17:51;;;;;;;7.95;5.45;;;16.50;57.00;;;;;;10403823;28;20081;-58
2023/01/26 11:23:20;;;;;;;6.35;4.53;;;16.40;57.10;;;;;;10428876;28;20028;-58
2023/01/26 11:29:15;;;;;;;6.00;3.92;;;16.30;58.10;;;;;;10443665;28;20177;-58
2023/01/26 11:34:44;;;;;;;5.70;4.65;;;16.00;58.60;;;;;;10443777;28;20025;-56
2023/01/26 11:40:10;;;;;;;10.73;4.65;;;16.00;59.00;;;;;;10442554;28;20041;-58
2023/01/26 11:45:35;;;;;;;6.45;4.05;;;15.90;59.80;;;;;;10424710;28;20034;-66
2023/01/26 11:50:53;;;;;;;6.53;3.88;;;15.80;60.30;;;;;;10419115;28;20677;-63
2023/01/26 11:56:18;;;;;;;6.95;4.25;;;15.90;59.90;;;;;;10433946;28;20361;-58
2023/01/26 12:01:36;;;;;;;5.88;3.75;;;15.80;60.50;;;;;;10435916;28;20036;-61
2023/01/26 12:06:41;;;;;;;27.75;5.78;;;15.70;60.90;;;;;;10432249;28;20690;-62
2023/01/26 12:11:48;;;;;;;5.00;3.47;;;15.70;61.10;;;;;;10436847;28;20053;-62
2023/01/26 12:17:51;;;;;;;6.07;4.05;;;15.70;61.20;;;;;;10428000;28;20080;-58
2023/01/26 12:23:07;;;;;;;7.57;3.90;;;15.70;61.20;;;;;;10422330;28;20041;-60
2023/01/26 12:28:41;;;;;;;7.72;4.45;;;15.70;61.30;;;;;;10428626;28;20022;-60
2023/01/26 12:33:42;;;;;;;6.10;4.13;;;15.70;61.40;;;;;;10411183;28;20501;-62
2023/01/26 12:38:58;;;;;;;6.20;4.15;;;15.60;61.40;;;;;;10409846;28;20014;-59
2023/01/26 12:44:27;;;;;;;5.88;3.78;;;15.60;61.60;;;;;;10421745;28;20041;-59
2023/01/26 12:49:36;;;;;;;6.53;3.30;;;15.50;61.80;;;;;;10432599;28;20017;-61
2023/01/26 12:54:49;;;;;;;6.25;4.18;;;15.40;61.80;;;;;;10409288;28;20072;-62
2023/01/26 12:59:50;;;;;;;6.63;3.70;;;15.40;62.00;;;;;;10423598;28;20091;-62
2023/01/26 13:04:51;;;;;;;5.35;3.20;;;15.40;62.10;;;;;;10408189;28;20067;-59
2023/01/26 13:10:14;;;;;;;5.40;3.30;;;15.30;62.10;;;;;;10435334;28;20036;-61
2023/01/26 13:15:18;;;;;;;5.82;3.72;;;15.30;62.30;;;;;;10409902;28;20252;-59
2023/01/26 13:20:28;;;;;;;7.10;3.28;;;15.20;62.40;;;;;;10418248;28;20108;-62
2023/01/26 13:25:31;;;;;;;5.53;3.50;;;15.20;62.60;;;;;;10412245;28;20049;-59
2023/01/26 13:30:46;;;;;;;5.40;3.38;;;15.10;62.70;;;;;;10416788;28;20049;-60
2023/01/26 13:35:48;;;;;;;6.70;3.45;;;15.10;62.80;;;;;;10429103;28;20028;-60
2023/01/26 13:40:49;;;;;;;5.35;3.28;;;15.00;62.90;;;;;;10407332;28;20086;-61
2023/01/26 13:46:35;;;;;;;5.43;3.22;;;15.00;62.70;;;;;;10421182;28;20018;-58
2023/01/26 13:51:41;;;;;;;4.72;2.92;;;15.00;62.80;;;;;;10416048;28;20022;-59
2023/01/26 13:57:05;;;;;;;5.35;2.83;;;15.10;62.70;;;;;;10408042;28;20441;-59
2023/01/26 14:02:19;;;;;;;5.95;3.05;;;15.10;62.80;;;;;;10406869;28;20071;-59
2023/01/26 14:07:45;;;;;;;5.05;2.92;;;15.20;62.30;;;;;;10406375;28;20357;-61
2023/01/26 14:12:50;;;;;;;5.70;2.75;;;15.20;62.10;;;;;;10402190;28;20044;-59
2023/01/26 14:18:04;;;;;;;4.43;3.05;;;15.40;61.60;;;;;;10405212;28;20071;-62
2023/01/26 14:23:17;;;;;;;4.60;2.60;;;15.50;60.80;;;;;;10434327;28;20098;-61
2023/01/26 14:28:22;;;;;;;5.70;3.38;;;15.60;60.60;;;;;;10435255;28;20026;-60
2023/01/26 14:33:24;;;;;;;3.80;2.35;;;15.60;60.50;;;;;;10405448;28;20115;-61
2023/01/26 14:38:28;;;;;;;4.65;2.50;;;15.70;60.40;;;;;;10406860;28;20053;-61
2023/01/26 14:43:29;;;;;;;3.67;2.05;;;15.70;60.10;;;;;;10406631;28;20496;-58
2023/01/26 14:48:41;;;;;;;2.90;1.85;;;15.80;60.00;;;;;;10410068;28;20113;-62
2023/01/26 14:53:49;;;;;;;3.55;2.47;;;15.80;60.00;;;;;;10406311;28;20021;-61
2023/01/26 14:58:53;;;;;;;3.97;2.35;;;15.80;59.80;;;;;;10414192;28;20021;-60
2023/01/26 15:04:21;;;;;;;4.90;2.63;;;15.80;59.70;;;;;;10421415;28;20381;-60
2023/01/26 15:09:26;;;;;;;3.72;2.55;;;15.80;59.80;;;;;;10404449;28;20030;-62
2023/01/26 15:14:36;;;;;;;4.57;2.17;;;15.90;59.70;;;;;;10417701;28;20053;-60
2023/01/26 15:19:40;;;;;;;;;;;15.80;59.70;;;;;;10424205;28;20614;-58
2023/01/26 15:24:41;;;;;;;4.60;2.20;;;15.90;59.70;;;;;;10466435;28;20368;-60
2023/01/26 15:29:42;;;;;;;4.22;2.42;;;15.90;59.70;;;;;;10407579;28;20084;-61
2023/01/26 15:34:44;;;;;;;3.92;1.98;;;15.90;59.60;;;;;;10415331;28;20469;-61
2023/01/26 15:39:45;;;;;;;6.88;2.85;;;15.90;59.70;;;;;;10405462;28;20026;-60
2023/01/26 15:44:46;;;;;;;3.30;1.70;;;15.90;59.60;;;;;;10416620;28;20027;-62
2023/01/26 15:49:46;;;;;;;5.32;1.92;;;15.90;59.60;;;;;;10411713;28;20021;-61
2023/01/26 15:54:47;;;;;;;4.22;1.90;;;15.90;59.50;;;;;;10403067;28;20032;-59
2023/01/26 15:59:48;;;;;;;5.30;2.50;;;15.90;59.60;;;;;;10403824;28;20037;-61
2023/01/26 16:04:48;;;;;;;4.18;2.05;;;15.90;59.60;;;;;;10402947;28;20720;-60
2023/01/26 16:09:50;;;;;;;3.60;1.88;;;15.80;59.50;;;;;;10404094;28;20517;-61
2023/01/26 16:14:51;;;;;;;3.50;2.35;;;15.90;59.50;;;;;;10403808;28;20497;-60
2023/01/26 16:19:52;;;;;;;3.92;1.48;;;15.90;59.50;;;;;;10422053;28;20148;-60
2023/01/26 16:24:52;;;;;;;2.60;1.70;;;16.00;60.00;;;;;;10445276;28;20500;-60
2023/01/26 16:29:53;;;;;;;4.53;1.75;;;16.00;59.10;;;;;;10419396;28;20057;-60
2023/01/26 16:34:54;;;;;;;3.45;1.70;;;16.10;59.00;;;;;;10427164;28;20700;-61
2023/01/26 16:39:54;;;;;;;2.83;1.63;;;15.90;59.60;;;;;;10406015;28;20048;-60
2023/01/26 16:44:55;;;;;;;3.63;1.25;;;16.00;59.00;;;;;;10424290;28;20025;-62
2023/01/26 16:49:56;;;;;;;3.10;1.33;;;16.10;58.50;;;;;;10435699;28;20112;-58
2023/01/26 16:54:57;;;;;;;4.40;1.48;;;16.20;58.50;;;;;;10415813;28;20101;-59
2023/01/26 16:59:58;;;;;;;6.82;2.00;;;16.10;58.60;;;;;;10426871;28;20033;-59
2023/01/26 17:04:59;;;;;;;5.05;1.58;;;15.90;59.30;;;;;;10433460;28;20264;-57
2023/01/26 17:09:59;;;;;;;10.95;2.20;;;16.00;59.60;;;;;;10446531;28;20047;-58
2023/01/26 17:15:00;;;;;;;6.43;2.25;;;16.20;59.50;;;;;;10447781;28;20040;-55
2023/01/26 17:20:02;;;;;;;7.95;2.53;;;16.30;61.30;;;;;;10445187;28;20116;-61
2023/01/26 17:25:03;;;;;;;9.18;2.10;;;16.60;61.10;;;;;;10446869;28;20017;-59
2023/01/26 17:30:05;;;;;;;7.65;2.10;;;16.90;60.90;;;;;;10465043;28;20685;-61
2023/01/26 17:35:07;;;;;;;8.07;3.00;;;17.00;61.00;;;;;;10449355;28;20587;-59
2023/01/26 17:40:10;;;;;;;6.03;2.17;;;16.90;61.60;;;;;;10445571;28;20040;-58
2023/01/26 17:45:11;;;;;;;15.77;3.97;;;17.00;61.50;;;;;;10450036;28;20107;-59
2023/01/26 17:50:11;;;;;;;8.02;2.20;;;17.00;61.30;;;;;;10441641;28;20392;-59
2023/01/26 17:55:12;;;;;;;7.45;2.10;;;17.10;61.60;;;;;;10448540;28;20116;-59
2023/01/26 18:00:14;;;;;;;11.25;2.17;;;17.00;62.30;;;;;;10449828;28;20138;-59
2023/01/26 18:05:15;;;;;;;7.32;1.90;;;17.10;61.80;;;;;;10439643;28;20017;-60
2023/01/26 18:10:16;;;;;;;11.25;2.42;;;17.00;61.10;;;;;;10449350;28;20025;-59
2023/01/26 18:15:17;;;;;;;8.68;1.98;;;17.00;60.70;;;;;;10448940;28;20053;-59
2023/01/26 18:20:17;;;;;;;11.13;3.20;;;17.10;60.20;;;;;;10423097;28;20108;-61
2023/01/26 18:25:20;;;;;;;12.48;2.65;;;17.10;60.00;;;;;;10446882;28;20028;-61
2023/01/26 18:30:21;;;;;;;4.10;1.45;;;17.20;59.80;;;;;;10448046;28;20021;-60
2023/01/26 18:35:21;;;;;;;11.40;2.70;;;17.20;59.50;;;;;;10445037;28;20120;-61
2023/01/26 18:40:22;;;;;;;8.73;1.52;;;17.20;59.40;;;;;;10436402;28;20040;-61
2023/01/26 18:45:23;;;;;;;6.63;1.08;;;17.20;59.30;;;;;;10428709;28;20406;-58
2023/01/26 18:50:24;;;;;;;5.00;1.38;;;17.20;59.20;;;;;;10413806;28;20117;-60
2023/01/26 18:55:25;;;;;;;4.35;1.23;;;17.20;59.10;;;;;;10406471;28;20476;-59
2023/01/26 19:00:25;;;;;;;4.25;1.10;;;17.20;58.80;;;;;;10443280;28;20031;-56
2023/01/26 19:05:28;;;;;;;5.00;1.38;;;17.30;58.70;;;;;;10409750;28;20020;-61
2023/01/26 19:10:28;;;;;;;5.85;1.40;;;17.30;58.70;;;;;;10405574;28;20100;-60
2023/01/26 19:15:30;;;;;;;3.83;1.08;;;17.20;58.80;;;;;;10421325;28;20053;-59
2023/01/26 19:20:31;;;;;;;5.03;1.50;;;17.20;58.70;;;;;;10431455;28;20056;-60
2023/01/26 19:25:36;;;;;;;5.65;1.67;;;17.20;58.70;;;;;;10431504;28;20048;-58
2023/01/26 19:30:36;;;;;;;8.45;2.03;;;17.20;59.20;;;;;;10427326;28;20026;-58
2023/01/26 19:35:38;;;;;;;6.88;1.48;;;17.20;59.60;;;;;;10428260;28;20479;-59
2023/01/26 19:40:39;;;;;;;7.10;1.50;;;17.20;59.50;;;;;;10407288;28;20083;-60
2023/01/26 19:45:40;;;;;;;3.38;0.93;;;17.30;59.30;;;;;;10413664;28;20425;-62
2023/01/26 19:50:41;;;;;;;5.82;1.40;;;17.20;59.20;;;;;;10407791;28;20026;-59
2023/01/26 19:55:42;;;;;;;8.02;3.00;;;17.20;59.40;;;;;;10399713;28;20641;-61
2023/01/26 20:00:42;;;;;;;3.55;1.17;;;17.20;59.30;;;;;;10415099;28;20116;-57
2023/01/26 20:05:43;;;;;;;4.97;1.42;;;17.20;59.50;;;;;;10421996;28;20108;-60
2023/01/26 20:10:44;;;;;;;3.47;0.88;;;17.10;59.60;;;;;;10423221;28;20101;-56
2023/01/26 20:15:45;;;;;;;3.03;1.10;;;17.00;59.60;;;;;;10432650;28;20480;-57
2023/01/26 20:20:50;;;;;;;3.15;1.20;;;16.90;59.80;;;;;;10430128;28;20037;-59
2023/01/26 20:25:51;;;;;;;4.88;1.30;;;16.90;59.90;;;;;;10451038;28;20024;-60
2023/01/26 20:30:54;;;;;;;4.45;1.17;;;16.90;60.00;;;;;;10450635;28;20494;-58
2023/01/26 20:35:55;;;;;;;5.22;1.38;;;16.80;60.10;;;;;;10449059;28;20029;-58
2023/01/26 20:40:55;;;;;;;6.72;1.45;;;16.60;60.50;;;;;;10429828;28;20083;-60
2023/01/26 20:45:56;;;;;;;3.65;0.90;;;16.50;60.80;;;;;;10420276;28;20041;-59
2023/01/26 20:50:57;;;;;;;2.90;0.80;;;16.40;61.10;;;;;;10416775;28;20472;-59
2023/01/26 20:55:58;;;;;;;3.45;1.15;;;16.30;61.40;;;;;;10409536;28;20025;-60
2023/01/26 21:01:05;;;;;;;2.70;0.90;;;16.10;61.60;;;;;;10452346;28;20056;-58
2023/01/26 21:06:07;;;;;;;3.67;0.95;;;16.00;61.80;;;;;;10409334;28;20476;-60
2023/01/26 21:11:12;;;;;;;3.22;0.80;;;15.90;62.00;;;;;;10410491;28;20014;-60
2023/01/26 21:16:15;;;;;;;2.78;1.40;;;15.90;62.30;;;;;;10408683;28;20045;-60
2023/01/26 21:21:17;;;;;;;4.10;0.93;;;15.70;62.30;;;;;;10417299;28;20028;-60
2023/01/26 21:26:21;;;;;;;4.00;1.13;;;15.70;62.50;;;;;;10448832;28;20021;-58
2023/01/26 21:31:24;;;;;;;2.47;0.98;;;15.60;62.60;;;;;;10449733;28;20431;-57
2023/01/26 21:36:30;;;;;;;2.30;1.17;;;15.60;62.60;;;;;;10450447;28;20028;-61
2023/01/26 21:47:05;;;;;;;1.40;0.52;;;15.50;62.80;;;;;;10418628;28;20027;-60
2023/01/26 22:02:47;;;;;;;2.40;0.82;;;15.30;63.00;;;;;;10421567;28;20033;-59
2023/01/26 22:07:48;;;;;;;2.50;0.95;;;15.30;63.20;;;;;;10406754;28;20024;-60
2023/01/26 22:12:48;;;;;;;2.90;0.80;;;15.20;63.20;;;;;;10408022;28;20020;-60
2023/01/26 22:17:49;;;;;;;4.75;1.27;;;15.20;63.40;;;;;;10407658;28;20080;-60
2023/01/26 22:22:50;;;;;;;1.90;0.80;;;15.10;63.30;;;;;;10426750;28;20111;-61
2023/01/26 22:27:50;;;;;;;3.28;1.42;;;15.10;63.50;;;;;;10427292;28;20084;-58
2023/01/26 22:32:51;;;;;;;4.00;0.75;;;15.10;63.40;;;;;;10405724;28;20672;-60
2023/01/26 22:37:51;;;;;;;5.35;0.88;;;15.00;63.40;;;;;;10404759;28;20108;-58
2023/01/26 22:42:52;;;;;;;1.65;0.70;;;15.00;63.40;;;;;;10416334;28;20146;-61
2023/01/26 22:47:53;;;;;;;3.00;0.80;;;15.00;63.40;;;;;;10420367;28;20439;-59
2023/01/26 22:52:54;;;;;;;2.85;0.73;;;15.00;63.50;;;;;;10413829;28;20071;-61
2023/01/26 22:57:54;;;;;;;2.33;0.77;;;14.90;63.60;;;;;;10407161;28;20049;-60
2023/01/26 23:02:55;;;;;;;2.50;0.65;;;14.90;63.60;;;;;;10445631;28;20502;-61
2023/01/26 23:07:56;;;;;;;2.42;0.80;;;14.90;63.60;;;;;;10424192;28;20045;-60
2023/01/26 23:12:57;;;;;;;2.03;1.10;;;14.80;63.60;;;;;;10426270;28;20018;-60
2023/01/26 23:17:57;;;;;;;4.72;1.45;;;14.80;63.60;;;;;;10405740;28;20098;-61
2023/01/26 23:22:58;;;;;;;6.70;1.25;;;14.80;63.50;;;;;;10418978;28;20061;-57
2023/01/26 23:28:03;;;;;;;4.05;0.82;;;14.80;63.50;;;;;;10405393;28;20092;-59
2023/01/26 23:33:03;;;;;;;1.73;0.75;;;14.70;63.40;;;;;;10405171;28;20029;-60
2023/01/26 23:38:04;;;;;;;3.17;0.95;;;14.70;63.40;;;;;;10431778;28;20569;-61
2023/01/26 23:43:06;;;;;;;2.83;0.65;;;14.70;63.50;;;;;;10415749;28;20108;-60
2023/01/26 23:48:07;;;;;;;1.85;1.02;;;14.70;63.40;;;;;;10404966;28;20009;-60
2023/01/26 23:53:08;;;;;;;2.17;0.80;;;14.70;63.50;;;;;;10421841;28;20619;-58
2023/01/26 23:58:10;;;;;;;2.85;1.70;;;14.70;63.40;;;;;;10453060;28;20064;-57
